• Join FlightAware (Why Join?)
  • Login
  • US Flag 
03:13AM EDT


 

Airport Tracker/Info


-or-


 

Live Flight TrackerFlight Track Log ✈ PDT4207 ✈ 22-Oct-2013 ✈ KPHL - KBGM

Flight Track Log - Related Links

Times and Time Zones

All times are in EDT time to prevent confusion due to time zone crossing. See the PDT4207 flight status page for this flight to view local times or setup timezone preferences in your user account.

Time Position Orientation Groundspeed Altitude Reporting Facility
EDT Latitude Longitude Course Direction KTS MPH feet Rate Location/Type
09:34PM 39.9000 -75.2500 294° West 124 143 700  Level Philadelphia TRACON
09:35PM 39.9000 -75.2833 270° West 126 145 2,000 1,440 Climbing Philadelphia TRACON
09:36PM 39.9167 -75.3167 303° West 136 157 3,200 1,260 Climbing Philadelphia TRACON
09:37PM 40.0653 -75.2999 323° Northwest  Level Estimated
09:37PM 39.9333 -75.3667 294° West 139 160 4,400  Level Philadelphia TRACON
09:38PM 40.1296 -75.3197 311° West  Level Estimated
09:38PM 39.9525 -75.3797 332° Northwest 152 175 5,300  Level New York Center
09:39PM 40.1940 -75.3395 311° West  Level Estimated
09:39PM 39.9897 -75.3931 345° North 158 182 6,300  Level New York Center
09:40PM 40.2210 -75.4184 294° West  Level FlightAware Approximate
09:40PM 40.0322 -75.4203 334° Northwest 151 174 7,700  Level New York Center
09:41PM 40.0581 -75.4519 317° Northwest 151 174 8,800 1,200 Climbing New York Center
09:42PM 40.1006 -75.4872 328° Northwest 159 183 10,100 1,200 Climbing New York Center
09:43PM 40.1375 -75.5033 342° North 173 199 11,200 900 Climbing New York Center
09:44PM 40.1844 -75.5283 338° Northwest 173 199 12,000 360 Climbing New York Center
09:45PM 40.2331 -75.5614 333° Northwest 186 214 12,000  Level New York Center
09:46PM 40.2683 -75.6183 309° West 206 237 12,000  Level New York Center
09:47PM 40.3308 -75.6692 328° Northwest 228 262 12,000  Level New York Center
09:48PM 40.3850 -75.7167 326° Northwest 238 274 12,000  Level New York Center
09:49PM 40.4372 -75.7667 324° Northwest 243 280 12,000 -60 Level New York Center
09:50PM 40.4894 -75.8114 327° Northwest 243 280 11,900 -60 Descending New York Center
09:51PM 40.5500 -75.8539 332° Northwest 243 280 11,900  Level New York Center
09:52PM 40.6214 -75.8894 339° North 243 280 12,000  Climbing New York Center
09:53PM 40.6847 -75.9214 339° North 248 285 12,000  Level New York Center
09:54PM 40.7478 -75.9592 336° Northwest 248 285 12,000  Level New York Center
09:55PM 40.8086 -75.9967 335° Northwest 248 285 12,000  Level New York Center
09:56PM 40.8736 -76.0319 338° Northwest 248 285 12,000 -60 Level New York Center
09:57PM 40.9331 -76.0528 345° North 248 285 11,900  Descending New York Center
09:58PM 40.9964 -76.0853 339° North 243 280 12,000  Climbing New York Center
09:59PM 41.0592 -76.1206 337° Northwest 243 280 12,000  Level New York Center
10:00PM 41.1286 -76.1508 342° North 243 280 12,000 -60 Level New York Center
10:01PM 41.1897 -76.1858 337° Northwest 243 280 11,900  Descending New York Center
10:02PM 41.2506 -76.2183 338° Northwest 243 280 12,000  Climbing New York Center
10:03PM 41.3161 -76.1989 13° North 237 273 11,900  Descending New York Center
10:04PM 41.3872 -76.1908 North 254 292 12,000  Climbing New York Center
10:05PM 41.4642 -76.1969 357° North 254 292 12,000 -300 Level New York Center
10:06PM 41.5372 -76.1889 North 254 292 11,500 -600 Descending New York Center
10:07PM 41.6147 -76.1842 North 260 299 10,800 -720 Descending New York Center
10:08PM 41.6839 -76.1731 North 272 313 10,100 -1,020 Descending New York Center
10:09PM 41.7686 -76.1411 16° North 277 319 8,800 -1,200 Descending New York Center
10:10PM 41.8386 -76.1106 18° North 272 313 7,800 -1,080 Descending New York Center
10:11PM 41.9064 -76.0881 14° North 255 293 6,700 -1,080 Descending New York Center
10:12PM 41.9636 -76.0619 19° North 243 280 5,700 -1,080 Descending New York Center
10:13PM 42.0297 -76.0283 21° North 248 285 4,600 -1,020 Descending New York Center
10:14PM 42.0961 -75.9861 25° Northeast 237 273 3,700 -840 Descending New York Center
10:15PM 42.1350 -75.9556 30° Northeast 201 231 3,000 -720 Descending New York Center
10:16PM 42.1706 -75.9500 North 153 176 2,300 -540 Descending New York Center
10:17PM 42.2042 -75.9442 North 126 145 2,000 -300 Descending New York Center